Time;durP1;ratioP1;P1;durP2;ratioP2;P2;SDS_P1;SDS_P2;PMS_P1;PMS_P2;Temp;Humidity;BMP_temperature;BMP_pressure;BME280_temperature;BME280_humidity;BME280_pressure;Samples;Min_cycle;Max_cycle;Signal;HPM_P1;HPM_P2
2022/09/21 00:02:12;;;;;;;3.60;1.10;;;;;;;6.96;100.00;101890.75;5063444;28;20419;-78
2022/09/21 00:04:45;;;;;;;4.50;1.10;;;;;;;6.95;100.00;101899.13;5047068;28;20434;-78
2022/09/21 00:07:20;;;;;;;3.58;1.40;;;;;;;6.92;100.00;101894.97;5090135;28;20414;-79
2022/09/21 00:09:53;;;;;;;5.43;1.30;;;;;;;6.87;100.00;101885.88;5059932;28;20427;-78
2022/09/21 00:12:26;;;;;;;8.05;1.60;;;;;;;6.88;100.00;101891.06;5061165;28;20433;-79
2022/09/21 00:14:55;;;;;;;2.58;1.10;;;;;;;6.85;100.00;101887.97;5067851;28;20424;-78
2022/09/21 00:17:28;;;;;;;3.30;1.23;;;;;;;6.84;100.00;101883.63;5047440;28;20415;-79
2022/09/21 00:20:04;;;;;;;2.83;1.13;;;;;;;6.85;100.00;101891.53;5066880;28;20434;-78
2022/09/21 00:22:38;;;;;;;2.57;1.20;;;;;;;6.82;100.00;101886.53;5091105;28;20425;-77
2022/09/21 00:25:11;;;;;;;3.40;1.27;;;;;;;6.89;100.00;101886.47;5065857;28;20512;-78
2022/09/21 00:27:47;;;;;;;2.97;1.00;;;;;;;6.92;100.00;101896.88;5058088;28;20484;-78
2022/09/21 00:30:21;;;;;;;3.78;1.30;;;;;;;6.95;100.00;101897.22;5066759;28;20443;-79
2022/09/21 00:32:54;;;;;;;2.47;1.13;;;;;;;6.95;100.00;101899.13;5067536;28;20427;-78
2022/09/21 00:35:27;;;;;;;3.55;1.23;;;;;;;6.93;100.00;101893.94;5076080;28;20423;-79
2022/09/21 00:38:02;;;;;;;1.65;1.02;;;;;;;6.91;100.00;101893.31;5049776;28;20433;-79
2022/09/21 00:40:36;;;;;;;2.03;1.10;;;;;;;6.91;100.00;101890.59;5057577;28;20924;-79
2022/09/21 00:43:15;;;;;;;3.73;1.27;;;;;;;6.96;100.00;101888.06;5064355;28;20980;-79
2022/09/21 00:45:45;;;;;;;5.37;1.00;;;;;;;6.98;100.00;101885.13;5064785;28;20496;-78
2022/09/21 00:48:19;;;;;;;3.97;1.00;;;;;;;6.94;100.00;101886.63;5059098;28;21008;-77
2022/09/21 00:50:55;;;;;;;2.75;1.25;;;;;;;6.94;100.00;101895.56;5064996;28;20439;-78
2022/09/21 00:53:31;;;;;;;3.25;1.02;;;;;;;6.89;100.00;101884.59;5064452;28;20433;-79
2022/09/21 00:56:06;;;;;;;2.28;1.10;;;;;;;6.94;100.00;101898.25;5068979;28;21170;-79
2022/09/21 00:58:48;;;;;;;3.33;1.10;;;;;;;6.87;100.00;101891.28;5084689;28;20440;-78
2022/09/21 01:01:22;;;;;;;1.93;1.00;;;;;;;6.86;100.00;101893.16;5049906;28;20419;-78
2022/09/21 01:03:56;;;;;;;2.47;1.07;;;;;;;6.87;100.00;101902.13;5074614;28;20423;-78
2022/09/21 01:06:29;;;;;;;2.08;1.05;;;;;;;6.86;100.00;101898.56;5074285;28;20430;-78
2022/09/21 01:09:04;;;;;;;1.67;1.00;;;;;;;6.87;100.00;101908.34;5060224;28;20932;-78
2022/09/21 01:11:50;;;;;;;2.85;1.00;;;;;;;6.84;100.00;101905.28;5059406;28;20430;-79
2022/09/21 01:14:38;;;;;;;1.95;1.10;;;;;;;6.82;100.00;101908.19;5064922;28;20431;-78
2022/09/21 01:17:12;;;;;;;3.00;1.10;;;;;;;6.80;100.00;101902.19;5062651;28;20425;-79
2022/09/21 01:20:05;;;;;;;3.80;1.25;;;;;;;6.80;100.00;101902.19;5055376;28;20433;-78
2022/09/21 01:22:55;;;;;;;4.85;1.50;;;;;;;6.76;100.00;101904.50;5074040;28;20414;-77
2022/09/21 01:25:35;;;;;;;2.70;1.15;;;;;;;6.77;100.00;101908.03;5071717;28;20408;-79
2022/09/21 01:28:24;;;;;;;4.00;1.20;;;;;;;6.77;100.00;101911.56;5079145;28;20438;-80
2022/09/21 01:31:04;;;;;;;4.45;1.30;;;;;;;6.69;100.00;101897.50;5047090;28;20758;-78
2022/09/21 01:33:39;;;;;;;2.25;1.00;;;;;;;6.73;100.00;101912.25;5067629;28;20414;-78
2022/09/21 01:36:17;;;;;;;2.88;1.25;;;;;;;6.74;100.00;101908.47;5069604;28;20900;-78
2022/09/21 01:38:54;;;;;;;3.40;1.10;;;;;;;6.76;100.00;101914.50;5051459;28;20772;-78
2022/09/21 01:41:30;;;;;;;4.10;1.30;;;;;;;6.72;100.00;101907.88;5066436;28;20425;-78
2022/09/21 01:44:08;;;;;;;2.38;1.10;;;;;;;6.74;100.00;101908.47;5055558;28;20424;-79
2022/09/21 01:46:38;;;;;;;2.80;1.30;;;;;;;6.73;100.00;101907.66;5056452;28;20446;-77
2022/09/21 01:49:13;;;;;;;3.42;1.20;;;;;;;6.72;100.00;101906.00;5050038;28;20489;-78
2022/09/21 01:51:51;;;;;;;5.95;1.38;;;;;;;6.68;100.00;101917.50;5066923;28;20423;-78
2022/09/21 01:54:30;;;;;;;2.65;1.10;;;;;;;6.63;100.00;101908.16;5071886;28;20442;-79
2022/09/21 01:57:06;;;;;;;3.22;1.10;;;;;;;6.62;100.00;101911.09;5062978;28;20452;-78
2022/09/21 01:59:46;;;;;;;3.40;1.13;;;;;;;6.60;100.00;101913.19;5069508;28;20431;-78
2022/09/21 02:02:19;;;;;;;4.13;1.23;;;;;;;6.50;100.00;101911.00;5065405;28;20425;-78
2022/09/21 02:04:53;;;;;;;3.78;1.30;;;;;;;6.57;100.00;101916.34;5060159;28;20436;-78
2022/09/21 02:07:26;;;;;;;3.40;1.20;;;;;;;6.58;100.00;101921.53;5096293;28;20434;-78
2022/09/21 02:10:00;;;;;;;2.17;1.05;;;;;;;6.61;100.00;101920.25;5080336;28;20411;-79
2022/09/21 02:12:34;;;;;;;2.85;1.13;;;;;;;6.59;100.00;101930.50;5061845;28;20419;-78
2022/09/21 02:15:03;;;;;;;3.47;1.30;;;;;;;6.59;100.00;101925.91;5070283;28;20421;-78
2022/09/21 02:17:48;;;;;;;3.60;1.20;;;;;;;6.63;100.00;101926.28;5057860;28;20426;-78
2022/09/21 02:20:28;;;;;;;5.47;1.30;;;;;;;6.63;100.00;101926.28;5067897;28;20452;-78
2022/09/21 02:23:07;;;;;;;2.63;1.20;;;;;;;6.67;100.00;101929.34;5077850;28;20747;-79
2022/09/21 02:25:47;;;;;;;3.17;1.15;;;;;;;6.58;100.00;101918.00;5070486;28;20425;-78
2022/09/21 02:28:28;;;;;;;3.17;1.20;;;;;;;6.64;100.00;101922.50;5079395;28;20462;-78
2022/09/21 02:31:06;;;;;;;2.13;1.13;;;;;;;6.67;100.00;101922.09;5054035;28;20432;-79
2022/09/21 02:33:47;;;;;;;3.25;1.10;;;;;;;6.63;100.00;101924.41;5060486;28;20651;-80
2022/09/21 02:36:29;;;;;;;2.83;1.20;;;;;;;6.63;100.00;101919.00;5061999;28;20926;-79
2022/09/21 02:39:07;;;;;;;1.70;1.17;;;;;;;6.63;100.00;101919.00;5073400;28;20760;-81
2022/09/21 02:41:45;;;;;;;4.68;1.30;;;;;;;6.61;100.00;101917.56;5043324;28;20443;-80
2022/09/21 02:44:24;;;;;;;2.35;1.20;;;;;;;6.60;100.00;101915.88;5052408;28;20430;-79
2022/09/21 02:47:03;;;;;;;3.28;1.30;;;;;;;6.57;100.00;101914.50;5065468;28;20423;-79
2022/09/21 02:49:43;;;;;;;3.40;1.20;;;;;;;6.47;100.00;101914.16;5059372;28;20425;-77
2022/09/21 02:52:17;;;;;;;2.05;1.10;;;;;;;6.45;100.00;101930.59;5065295;28;20431;-79
2022/09/21 02:54:53;;;;;;;3.05;1.38;;;;;;;6.35;100.00;101921.31;5072946;28;20432;-80
2022/09/21 02:57:27;;;;;;;3.22;1.13;;;;;;;6.39;100.00;101936.06;5063362;28;20438;-77
2022/09/21 03:00:00;;;;;;;2.40;1.10;;;;;;;6.38;100.00;101937.09;5076461;28;20773;-79
2022/09/21 03:02:38;;;;;;;2.58;1.20;;;;;;;6.36;100.00;101936.50;5065575;28;20418;-80
2022/09/21 03:05:14;;;;;;;1.92;1.00;;;;;;;6.34;100.00;101936.72;5064734;28;20419;-79
2022/09/21 03:07:48;;;;;;;2.92;1.10;;;;;;;6.38;100.00;101934.41;5068690;28;20433;-79
2022/09/21 03:10:21;;;;;;;2.45;1.15;;;;;;;6.37;100.00;101936.28;5072686;28;20440;-78
2022/09/21 03:12:58;;;;;;;4.45;1.30;;;;;;;6.36;100.00;101939.22;5050710;28;20445;-79
2022/09/21 03:15:31;;;;;;;2.33;1.02;;;;;;;6.35;100.00;101934.84;5072976;28;20905;-79
2022/09/21 03:18:05;;;;;;;3.60;1.27;;;;;;;6.35;100.00;101932.13;5070704;28;20443;-79
2022/09/21 03:20:44;;;;;;;3.50;1.30;;;;;;;6.34;100.00;101934.03;5055967;28;20432;-79
2022/09/21 03:23:18;;;;;;;3.90;1.50;;;;;;;6.30;100.00;101949.84;5093921;28;20421;-80
2022/09/21 03:25:52;;;;;;;2.97;1.23;;;;;;;6.32;100.00;101940.69;5073204;28;20429;-80
2022/09/21 03:28:25;;;;;;;4.07;1.20;;;;;;;6.30;100.00;101944.44;5066724;28;20419;-79
2022/09/21 03:30:58;;;;;;;2.53;1.30;;;;;;;6.28;100.00;101951.97;5063159;28;20897;-79
2022/09/21 03:33:26;;;;;;;2.40;1.17;;;;;;;6.26;100.00;101950.53;5084162;28;20456;-79
2022/09/21 03:36:01;;;;;;;3.40;1.30;;;;;;;6.22;100.00;101954.72;5050287;28;20796;-80
2022/09/21 03:38:35;;;;;;;4.47;1.30;;;;;;;6.21;100.00;101953.84;5050328;28;20412;-79
2022/09/21 03:41:08;;;;;;;3.42;1.10;;;;;;;6.21;100.00;101951.16;5053741;28;20427;-79
2022/09/21 03:43:41;;;;;;;4.07;1.35;;;;;;;6.17;100.00;101949.13;5068102;28;20424;-80
2022/09/21 03:46:15;;;;;;;6.97;2.50;;;;;;;6.18;100.00;101951.59;5061470;28;20433;-79
2022/09/21 03:48:46;;;;;;;13.18;5.28;;;;;;;6.18;100.00;101945.38;5074508;28;20407;-78
2022/09/21 03:51:21;;;;;;;17.37;7.97;;;;;;;6.17;100.00;101949.13;5058595;28;20426;-79
2022/09/21 03:53:49;;;;;;;19.93;9.80;;;;;;;6.15;100.00;101952.03;5068926;28;20434;-80
2022/09/21 03:56:22;;;;;;;21.50;11.38;;;;;;;6.11;100.00;101948.13;5070897;28;20932;-79
2022/09/21 03:58:55;;;;;;;13.40;7.00;;;;;;;6.07;100.00;101950.44;5064741;28;20435;-80
2022/09/21 04:01:28;;;;;;;9.25;4.25;;;;;;;6.12;100.00;101949.78;5052109;28;21691;-80
2022/09/21 04:04:01;;;;;;;3.92;1.77;;;;;;;6.09;100.00;101940.25;5067013;28;20772;-80
2022/09/21 04:06:31;;;;;;;7.07;1.75;;;;;;;6.13;100.00;101944.16;5071858;28;20427;-79
2022/09/21 04:09:01;;;;;;;3.70;1.50;;;;;;;6.18;100.00;101954.31;5052102;28;20882;-79
2022/09/21 04:11:34;;;;;;;5.22;1.50;;;;;;;6.20;100.00;101962.19;5056208;28;20777;-79
2022/09/21 04:14:07;;;;;;;2.95;1.40;;;;;;;6.19;100.00;101960.56;5061819;28;20436;-80
2022/09/21 04:16:40;;;;;;;4.15;1.50;;;;;;;6.21;100.00;101961.97;5072870;28;20935;-79
2022/09/21 04:19:13;;;;;;;4.20;1.42;;;;;;;6.20;100.00;101965.75;5067834;28;20429;-80
2022/09/21 04:21:43;;;;;;;3.30;1.40;;;;;;;6.08;100.00;101965.59;5066326;28;20933;-80
2022/09/21 04:24:18;;;;;;;4.60;1.50;;;;;;;6.02;100.00;101960.22;5049809;28;20411;-80
2022/09/21 04:26:51;;;;;;;3.78;1.25;;;;;;;6.03;100.00;101967.31;5068873;28;20425;-79
2022/09/21 04:29:24;;;;;;;5.20;1.50;;;;;;;6.03;100.00;101970.00;5059725;28;20891;-78
2022/09/21 04:31:57;;;;;;;5.72;1.10;;;;;;;5.99;100.00;101977.72;5045695;28;20437;-79
2022/09/21 04:34:31;;;;;;;3.15;1.20;;;;;;;5.95;100.00;101980.00;5086990;28;20431;-79
2022/09/21 04:37:06;;;;;;;2.25;1.25;;;;;;;5.92;100.00;101972.34;5060915;28;20427;-79
2022/09/21 04:39:39;;;;;;;2.47;1.38;;;;;;;5.91;100.00;101977.94;5096300;28;20421;-79
2022/09/21 04:42:13;;;;;;;4.57;1.50;;;;;;;5.87;100.00;101972.16;5067089;28;20425;-80
2022/09/21 04:44:46;;;;;;;3.67;1.60;;;;;;;5.85;100.00;101970.72;5060963;28;20422;-80
2022/09/21 04:47:22;;;;;;;5.25;1.77;;;;;;;5.83;100.00;101968.22;5058712;28;20444;-80
2022/09/21 04:49:51;;;;;;;5.53;2.20;;;;;;;5.82;100.00;101979.25;5068438;28;20422;-80
2022/09/21 04:52:25;;;;;;;7.35;2.00;;;;;;;5.82;100.00;101977.38;5068239;28;20424;-80
2022/09/21 04:54:58;;;;;;;3.60;1.70;;;;;;;5.82;100.00;101977.38;5072816;28;20774;-80
2022/09/21 04:57:31;;;;;;;3.75;1.77;;;;;;;5.87;100.00;101969.44;5058836;28;20430;-79
2022/09/21 04:59:59;;;;;;;3.97;1.80;;;;;;;5.87;100.00;101968.59;5045831;28;20428;-79
2022/09/21 05:02:32;;;;;;;4.43;1.77;;;;;;;5.87;100.00;101976.72;5061312;28;20431;-80
2022/09/21 05:05:06;;;;;;;7.10;2.08;;;;;;;5.83;100.00;101975.47;5070089;28;20426;-82
2022/09/21 05:07:40;;;;;;;8.38;2.08;;;;;;;5.83;100.00;101970.94;5042617;28;20425;-81
2022/09/21 05:10:12;;;;;;;4.40;2.00;;;;;;;5.86;100.00;101977.78;5066598;28;20423;-80
2022/09/21 05:12:45;;;;;;;6.38;2.03;;;;;;;5.88;100.00;101981.91;5060618;28;20442;-80
2022/09/21 05:15:14;;;;;;;8.80;2.07;;;;;;;5.89;100.00;101978.16;5065385;28;20428;-79
2022/09/21 05:17:42;;;;;;;7.82;2.08;;;;;;;5.86;100.00;101977.78;5063282;28;20425;-80
2022/09/21 05:20:11;;;;;;;3.72;1.75;;;;;;;5.91;100.00;101977.94;5058255;28;20414;-79
2022/09/21 05:22:40;;;;;;;4.15;1.65;;;;;;;5.95;100.00;101979.16;5068120;28;20419;-79
2022/09/21 05:25:14;;;;;;;15.07;3.17;;;;;;;6.01;100.00;101978.34;5061702;28;20503;-79
2022/09/21 05:27:47;;;;;;;8.98;2.20;;;;;;;6.07;100.00;101979.34;5052686;28;20427;-79
2022/09/21 05:30:21;;;;;;;4.50;1.92;;;;;;;6.17;100.00;101978.84;5059397;28;20428;-80
2022/09/21 05:32:58;;;;;;;3.00;1.70;;;;;;;6.22;100.00;101985.25;5083588;28;20893;-79
2022/09/21 05:35:32;;;;;;;4.82;1.80;;;;;;;6.29;100.00;101988.75;5081351;28;20437;-80
2022/09/21 05:38:12;;;;;;;4.87;1.70;;;;;;;6.34;100.00;101982.69;5056234;28;20423;-80
2022/09/21 05:40:48;;;;;;;9.00;1.80;;;;;;;6.39;100.00;101990.94;5063513;28;20419;-80
2022/09/21 05:43:22;;;;;;;8.15;1.80;;;;;;;6.45;100.00;101984.69;5064362;28;20437;-79
2022/09/21 05:46:01;;;;;;;6.57;1.80;;;;;;;6.56;100.00;101990.41;5044354;28;20455;-81
2022/09/21 05:48:40;;;;;;;5.37;1.43;;;;;;;6.64;100.00;101985.56;5063469;28;20945;-80
2022/09/21 05:51:20;;;;;;;15.48;1.90;;;;;;;6.71;100.00;101990.09;5051425;28;20427;-81
2022/09/21 05:54:00;;;;;;;5.82;1.70;;;;;;;6.80;100.00;101992.28;5074004;28;20427;-80
2022/09/21 05:56:44;;;;;;;4.40;1.90;;;;;;;6.88;100.00;101990.38;5045582;28;22207;-80
2022/09/21 05:59:39;;;;;;;4.80;1.90;;;;;;;6.90;100.00;101982.84;5062728;28;20463;-80
2022/09/21 06:02:21;;;;;;;5.18;1.73;;;;;;;7.00;100.00;101982.31;5062132;28;20424;-80
2022/09/21 06:04:52;;;;;;;3.20;1.80;;;;;;;7.06;100.00;101992.28;5062075;28;20421;-80
2022/09/21 06:07:26;;;;;;;4.88;1.65;;;;;;;7.14;100.00;101995.50;5060964;28;20425;-80
2022/09/21 06:10:00;;;;;;;5.07;1.80;;;;;;;7.24;100.00;101992.28;5050243;28;20431;-80
2022/09/21 06:12:28;;;;;;;5.60;1.60;;;;;;;7.30;100.00;101990.53;5060792;28;21108;-79
2022/09/21 06:15:01;;;;;;;3.75;1.60;;;;;;;7.35;100.00;101992.56;5042031;28;20904;-80
2022/09/21 06:17:34;;;;;;;3.95;1.92;;;;;;;7.44;100.00;101996.63;5041367;28;20433;-79
2022/09/21 06:20:02;;;;;;;8.75;5.35;;;;;;;7.54;100.00;101994.25;5074586;28;20911;-80
2022/09/21 06:22:35;;;;;;;6.97;3.55;;;;;;;7.55;100.00;101998.59;5061412;28;20426;-80
2022/09/21 06:25:10;;;;;;;7.00;3.40;;;;;;;7.64;100.00;102005.34;5066854;28;20425;-80
2022/09/21 06:27:43;;;;;;;5.82;3.05;;;;;;;7.75;100.00;102003.75;5063088;28;20451;-80
2022/09/21 06:30:16;;;;;;;4.87;2.60;;;;;;;7.81;100.00;102002.03;5050300;28;20782;-80
2022/09/21 06:32:49;;;;;;;5.57;2.47;;;;;;;7.91;100.00;102007.75;5075101;28;20434;-79
2022/09/21 06:35:22;;;;;;;6.40;2.40;;;;;;;7.96;100.00;102012.47;5049681;28;20433;-83
2022/09/21 06:37:50;;;;;;;5.03;2.30;;;;;;;8.04;100.00;102014.84;5082116;28;20913;-80
2022/09/21 06:40:25;;;;;;;4.28;2.30;;;;;;;8.10;100.00;102011.22;5047865;28;20421;-78
2022/09/21 06:42:58;;;;;;;4.90;2.33;;;;;;;8.20;100.00;102007.94;5069823;28;20423;-78
2022/09/21 06:45:33;;;;;;;4.78;2.20;;;;;;;8.19;100.00;102009.00;5047669;28;20425;-81
2022/09/21 06:48:06;;;;;;;5.40;2.28;;;;;;;8.31;100.00;102003.59;5071397;28;20427;-79
2022/09/21 06:50:39;;;;;;;3.70;1.90;;;;;;;8.39;100.00;102016.84;5066858;28;20427;-79
2022/09/21 06:53:12;;;;;;;3.03;1.70;;;;;;;8.48;100.00;102014.66;5082487;28;20427;-79
2022/09/21 06:55:46;;;;;;;3.63;1.67;;;;;;;8.58;100.00;102020.34;5051576;28;20427;-82
2022/09/21 06:58:20;;;;;;;3.95;1.70;;;;;;;8.63;100.00;102023.19;5075441;28;20440;-80
2022/09/21 07:00:53;;;;;;;4.37;1.60;;;;;;;8.68;100.00;102023.28;5069020;28;20454;-80
2022/09/21 07:03:26;;;;;;;4.13;1.70;;;;;;;8.83;100.00;102019.31;5054233;28;20423;-80
2022/09/21 07:05:54;;;;;;;4.17;1.60;;;;;;;8.95;100.00;102028.28;5069267;28;20509;-79
2022/09/21 07:08:27;;;;;;;3.92;1.60;;;;;;;9.03;100.00;102032.53;5048948;28;20443;-81
2022/09/21 07:11:02;;;;;;;4.93;1.60;;;;;;;9.13;100.00;102029.25;5027514;28;21625;-80
2022/09/21 07:13:30;;;;;;;4.25;1.60;;;;;;;9.18;100.00;102034.75;5026275;28;20443;-79
2022/09/21 07:16:05;;;;;;;4.18;1.40;;;;;;;9.19;100.00;102015.50;5048470;28;20427;-81
2022/09/21 07:18:34;;;;;;;3.90;1.50;;;;;;;9.38;100.00;102034.41;5044873;28;20431;-79
2022/09/21 07:21:03;;;;;;;3.95;1.48;;;;;;;9.34;100.00;102038.66;5044526;28;21123;-80
2022/09/21 07:23:37;;;;;;;2.42;1.42;;;;;;;9.36;100.00;102037.38;5031794;28;20435;-81
2022/09/21 07:26:14;;;;;;;4.25;1.65;;;;;;;9.37;100.00;102027.31;5032188;28;20435;-81
2022/09/21 07:28:47;;;;;;;4.13;1.80;;;;;;;9.49;100.00;102047.13;5028646;28;20770;-81
2022/09/21 07:31:20;;;;;;;4.90;1.70;;;;;;;9.56;100.00;102044.28;5037064;28;20936;-81
2022/09/21 07:33:57;;;;;;;3.60;1.60;;;;;;;9.63;100.00;102049.59;5034311;28;20435;-82
2022/09/21 07:36:30;;;;;;;4.85;1.58;;;;;;;9.68;100.00;102045.09;5051659;28;20435;-82
2022/09/21 07:39:04;;;;;;;3.35;1.33;;;;;;;9.81;100.00;102044.00;5033210;28;20438;-82
2022/09/21 07:41:38;;;;;;;4.57;1.45;;;;;;;9.96;100.00;102048.09;5034891;28;20442;-81
2022/09/21 07:44:11;;;;;;;3.17;1.35;;;;;;;9.98;100.00;102052.19;5048966;28;21071;-80
2022/09/21 07:46:45;;;;;;;3.53;1.50;;;;;;;10.03;100.00;102049.59;5017951;28;20432;-81
2022/09/21 07:49:19;;;;;;;2.50;1.37;;;;;;;10.27;100.00;102049.47;5042914;28;20435;-81
2022/09/21 07:51:47;;;;;;;5.13;1.38;;;;;;;10.45;100.00;102053.91;5037144;28;20919;-81
2022/09/21 07:54:20;;;;;;;3.55;1.15;;;;;;;10.59;100.00;102059.88;5020320;28;20428;-81
2022/09/21 07:59:36;;;;;;;3.38;1.60;;;;;;;10.60;100.00;102058.81;5031668;28;20435;-79
2022/09/21 08:02:09;;;;;;;17.05;10.75;;;;;;;10.72;100.00;102059.56;5035234;28;20810;-78
2022/09/21 08:04:42;;;;;;;6.93;2.85;;;;;;;11.01;100.00;102061.38;5012821;28;20454;-80
2022/09/21 08:07:15;;;;;;;3.77;1.60;;;;;;;11.02;100.00;102063.84;5030511;28;20427;-80
2022/09/21 08:09:50;;;;;;;3.00;1.40;;;;;;;10.95;100.00;102065.94;5032060;28;20807;-79
2022/09/21 08:12:24;;;;;;;3.05;1.30;;;;;;;11.15;100.00;102062.69;5030872;28;20444;-78
2022/09/21 08:14:57;;;;;;;2.60;1.20;;;;;;;11.26;100.00;102071.84;5034480;28;20435;-79
2022/09/21 08:17:30;;;;;;;3.45;1.17;;;;;;;11.27;100.00;102070.78;5034370;28;22020;-80
2022/09/21 08:20:04;;;;;;;3.70;1.33;;;;;;;11.33;100.00;102060.75;5029053;28;20443;-80
2022/09/21 08:22:37;;;;;;;2.57;1.30;;;;;;;11.33;100.00;102069.75;5042973;28;20427;-80
2022/09/21 08:25:10;;;;;;;3.92;1.63;;;;;;;11.39;100.00;102070.66;5040714;28;20974;-79
2022/09/21 08:27:45;;;;;;;3.20;1.00;;;;;;;11.44;100.00;102067.19;5045524;28;20431;-80
2022/09/21 08:30:14;;;;;;;3.95;1.42;;;;;;;11.47;100.00;102072.13;5047927;28;20438;-80
2022/09/21 08:32:47;;;;;;;5.35;2.10;;;;;;;11.49;100.00;102080.88;5048583;28;20434;-81
2022/09/21 08:35:20;;;;;;;5.10;1.30;;;;;;;11.50;100.00;102075.19;5045473;28;20423;-78
2022/09/21 08:37:49;;;;;;;2.65;1.20;;;;;;;11.57;100.00;102078.56;5025087;28;20446;-78
2022/09/21 08:40:23;;;;;;;1.80;1.00;;;;;;;11.51;100.00;102079.53;5038220;28;20438;-78
2022/09/21 08:42:59;;;;;;;2.47;1.30;;;;;;;11.60;100.00;102076.38;5022595;28;20442;-78
2022/09/21 08:45:37;;;;;;;2.50;1.10;;;;;;;11.74;100.00;102077.66;5020696;28;21001;-79
2022/09/21 08:48:18;;;;;;;3.30;1.00;;;;;;;11.78;100.00;102073.38;5022127;28;20428;-78
2022/09/21 08:50:53;;;;;;;1.40;0.80;;;;;;;11.85;100.00;102068.53;5042190;28;20431;-79
2022/09/21 08:53:33;;;;;;;1.70;0.90;;;;;;;11.97;100.00;102068.41;5037462;28;20436;-78
2022/09/21 08:56:08;;;;;;;1.50;0.90;;;;;;;12.01;100.00;102066.00;5021850;28;20435;-76
2022/09/21 08:58:43;;;;;;;2.15;1.00;;;;;;;11.96;100.00;102068.66;5028823;28;20753;-78
2022/09/21 09:01:33;;;;;;;2.65;0.90;;;;;;;11.85;100.00;102065.81;5029784;28;20435;-77
2022/09/21 09:04:26;;;;;;;2.42;1.00;;;;;;;12.07;100.00;102068.53;5015655;28;20432;-79
2022/09/21 09:07:09;;;;;;;1.35;0.73;;;;;;;12.17;100.00;102076.03;5037292;28;20427;-78
2022/09/21 09:10:03;;;;;;;1.83;0.70;;;;;;;12.02;100.00;102068.47;5038884;28;20438;-79
2022/09/21 09:12:47;;;;;;;2.90;0.77;;;;;;;12.21;100.00;102074.44;5034438;28;20446;-79
2022/09/21 09:15:37;;;;;;;1.58;0.80;;;;;;;12.14;100.00;102071.06;5015207;28;20440;-79
2022/09/21 09:18:14;;;;;;;1.83;0.60;;;;;;;12.16;100.00;102070.81;5031389;28;20454;-79
2022/09/21 09:20:53;;;;;;;2.40;0.90;;;;;;;12.24;100.00;102073.91;5023826;28;20765;-80
2022/09/21 09:23:31;;;;;;;2.37;1.00;;;;;;;12.58;100.00;102070.97;5016705;28;21009;-79
2022/09/21 09:26:09;;;;;;;2.40;0.80;;;;;;;12.84;100.00;102073.09;5034549;28;20465;-80
2022/09/21 09:28:45;;;;;;;1.30;0.60;;;;;;;12.88;100.00;102075.03;5044088;28;20423;-80
2022/09/21 09:31:23;;;;;;;1.83;0.73;;;;;;;12.93;100.00;102083.28;5044395;28;20424;-79
2022/09/21 09:33:55;;;;;;;2.72;0.70;;;;;;;12.89;100.00;102086.78;5057298;28;20430;-81
2022/09/21 09:36:32;;;;;;;2.53;0.80;;;;;;;12.66;100.00;102082.50;5038822;28;22199;-80
2022/09/21 09:39:05;;;;;;;2.53;0.80;;;;;;;12.49;100.00;102079.91;5047594;28;20964;-81
2022/09/21 09:42:22;;;;;;;2.03;0.70;;;;;;;12.65;100.00;102084.41;5041327;28;20450;-79
2022/09/21 09:45:19;;;;;;;2.20;0.80;;;;;;;12.76;100.00;102077.13;5043648;28;20507;-80
2022/09/21 09:48:06;;;;;;;1.42;0.60;;;;;;;12.89;100.00;102076.69;5022349;28;20435;-80
2022/09/21 09:50:41;;;;;;;1.15;0.70;;;;;;;13.03;100.00;102078.97;5044686;28;20435;-79
2022/09/21 09:53:13;;;;;;;1.42;0.70;;;;;;;13.13;100.00;102078.22;5037382;28;20443;-80
2022/09/21 09:55:48;;;;;;;1.67;0.70;;;;;;;13.10;100.00;102077.69;5010826;28;20430;-80
2022/09/21 09:58:23;;;;;;;2.13;0.55;;;;;;;12.72;100.00;102078.75;5029512;28;20434;-79
2022/09/21 10:00:56;;;;;;;0.75;0.52;;;;;;;12.49;100.00;102080.72;5030835;28;20435;-79
2022/09/21 10:03:30;;;;;;;2.35;0.70;;;;;;;12.35;100.00;102076.75;5035092;28;20427;-81
2022/09/21 10:05:58;;;;;;;1.45;0.60;;;;;;;12.44;100.00;102066.19;5046077;28;20438;-79
2022/09/21 10:08:46;;;;;;;2.35;0.80;;;;;;;12.51;100.00;102070.38;5023899;28;20436;-80
2022/09/21 10:11:19;;;;;;;1.85;0.70;;;;;;;12.87;100.00;102072.56;5026896;28;20432;-78
2022/09/21 10:13:52;;;;;;;2.20;0.70;;;;;;;12.80;100.00;102055.56;5051825;28;21941;-78
2022/09/21 10:16:25;;;;;;;1.65;0.60;;;;;;;13.02;100.00;102067.22;5038411;28;20420;-80
2022/09/21 10:19:01;;;;;;;2.40;0.60;;;;;;;12.96;100.00;102062.81;5039502;28;20431;-79
2022/09/21 10:21:36;;;;;;;1.25;0.60;;;;;;;13.01;100.00;102070.19;5030858;28;20431;-79
2022/09/21 10:24:20;;;;;;;1.30;0.50;;;;;;;13.16;100.00;102062.13;5023550;28;20435;-78
2022/09/21 10:26:55;;;;;;;0.45;0.40;;;;;;;13.06;100.00;102065.63;5023920;28;20423;-81
2022/09/21 10:29:31;;;;;;;1.33;0.65;;;;;;;13.05;100.00;102061.22;5028873;28;20427;-80
2022/09/21 10:32:17;;;;;;;0.75;0.47;;;;;;;13.18;100.00;102064.59;5027343;28;20809;-80
2022/09/21 10:35:13;;;;;;;2.15;0.47;;;;;;;13.26;100.00;102062.19;5041063;28;20431;-80
2022/09/21 10:37:52;;;;;;;2.40;0.50;;;;;;;13.53;100.00;102052.25;5022263;28;20434;-79
2022/09/21 10:40:26;;;;;;;0.70;0.45;;;;;;;13.56;100.00;102058.00;5036612;28;20756;-79
2022/09/21 10:43:00;;;;;;;0.85;0.55;;;;;;;13.44;100.00;102050.00;5037817;28;20435;-79
2022/09/21 10:45:35;;;;;;;0.95;0.47;;;;;;;13.35;100.00;102051.59;5034214;28;20433;-79
2022/09/21 10:48:15;;;;;;;2.20;0.50;;;;;;;13.51;100.00;102055.25;5034749;28;20769;-80
2022/09/21 10:50:48;;;;;;;0.80;0.40;;;;;;;13.71;100.00;102042.75;5039693;28;20440;-79
2022/09/21 10:53:27;;;;;;;0.50;0.50;;;;;;;13.68;100.00;102046.84;5033087;28;20431;-79
2022/09/21 10:56:04;;;;;;;0.65;0.40;;;;;;;13.90;100.00;102040.34;5031776;28;20978;-77
2022/09/21 10:58:34;;;;;;;6.28;3.05;;;;;;;14.01;100.00;102046.69;5014239;28;20431;-77
2022/09/21 11:01:12;;;;;;;1.60;0.70;;;;;;;13.80;100.00;102041.16;5032854;28;20431;-79
2022/09/21 11:03:53;;;;;;;1.17;0.43;;;;;;;13.72;100.00;102049.88;5023637;28;21499;-78
2022/09/21 11:06:36;;;;;;;5.40;2.38;;;;;;;13.96;100.00;102044.72;5029777;28;20760;-77
2022/09/21 11:09:14;;;;;;;0.57;0.40;;;;;;;14.03;100.00;102050.81;5039257;28;22042;-77
2022/09/21 11:11:56;;;;;;;0.30;0.30;;;;;;;13.96;100.00;102047.47;5049383;28;20426;-81
2022/09/21 11:14:44;;;;;;;0.43;0.40;;;;;;;13.81;100.00;102044.69;5026923;28;20426;-80
2022/09/21 11:17:30;;;;;;;0.60;0.50;;;;;;;13.91;100.00;102037.34;5035781;28;21038;-78
2022/09/21 11:20:14;;;;;;;0.40;0.40;;;;;;;13.88;100.00;102048.00;5052566;28;20981;-76
2022/09/21 11:22:52;;;;;;;2.13;0.50;;;;;;;13.88;100.00;102051.56;5054471;28;20411;-78
2022/09/21 11:25:35;;;;;;;0.55;0.43;;;;;;;14.10;100.00;102045.88;5027862;28;21744;-76
2022/09/21 11:28:16;;;;;;;1.00;0.50;;;;;;;14.00;100.00;102045.84;5044644;28;20436;-78
2022/09/21 11:31:06;;;;;;;1.33;0.50;;;;;;;14.12;100.00;102040.13;5039699;28;20431;-79
2022/09/21 11:33:47;;;;;;;0.93;0.47;;;;;;;14.10;100.00;102048.63;5042442;28;20423;-78
2022/09/21 11:36:28;;;;;;;1.65;0.43;;;;;;;13.89;100.00;102047.75;5022852;28;20408;-79
2022/09/21 11:39:14;;;;;;;1.10;0.50;;;;;;;13.89;100.00;102039.53;5036758;28;20431;-77
2022/09/21 11:42:09;;;;;;;3.00;0.70;;;;;;;13.87;95.33;102041.72;5036254;28;20896;-80
2022/09/21 11:44:49;;;;;;;1.50;0.40;;;;;;;14.05;100.00;102036.84;5033205;28;20433;-76
2022/09/21 11:47:51;;;;;;;0.80;0.40;;;;;;;14.05;100.00;102039.56;5026232;28;20431;-78
2022/09/21 11:50:40;;;;;;;0.40;0.30;;;;;;;13.90;100.00;102029.41;5037276;28;20419;-76
2022/09/21 11:53:27;;;;;;;0.50;0.40;;;;;;;14.32;98.91;102039.38;5040758;28;21728;-77
2022/09/21 11:56:15;;;;;;;0.63;0.32;;;;;;;14.32;100.00;102041.25;5041997;28;20427;-80
2022/09/21 11:58:51;;;;;;;1.38;0.50;;;;;;;14.31;100.00;102042.34;5014926;28;20431;-79
2022/09/21 12:01:42;;;;;;;1.08;0.40;;;;;;;14.07;100.00;102029.16;5039174;28;20439;-77
2022/09/21 12:04:28;;;;;;;3.17;0.63;;;;;;;14.16;100.00;102032.22;5011314;28;21256;-76
2022/09/21 12:07:10;;;;;;;1.15;0.50;;;;;;;14.11;100.00;102025.63;5037170;28;20418;-78